sensor_id;sensor_type;location;lat;lon;timestamp;temperature;humidity
13892;DHT22;7016;48.172;8.058;2023-07-28T00:02:24;16.80;99.90
13892;DHT22;7016;48.172;8.058;2023-07-28T00:05:10;16.80;99.90
13892;DHT22;7016;48.172;8.058;2023-07-28T00:07:56;16.80;99.90
13892;DHT22;7016;48.172;8.058;2023-07-28T00:10:43;16.80;99.90
13892;DHT22;7016;48.172;8.058;2023-07-28T00:13:29;16.70;99.90
13892;DHT22;7016;48.172;8.058;2023-07-28T00:16:15;16.70;99.90
13892;DHT22;7016;48.172;8.058;2023-07-28T00:19:03;16.60;99.90
13892;DHT22;7016;48.172;8.058;2023-07-28T00:21:50;16.60;99.90
13892;DHT22;7016;48.172;8.058;2023-07-28T00:24:37;16.60;99.90
13892;DHT22;7016;48.172;8.058;2023-07-28T00:27:23;16.60;99.90
13892;DHT22;7016;48.172;8.058;2023-07-28T00:30:10;16.60;99.90
13892;DHT22;7016;48.172;8.058;2023-07-28T00:32:57;16.50;99.90
13892;DHT22;7016;48.172;8.058;2023-07-28T00:35:43;16.60;99.90
13892;DHT22;7016;48.172;8.058;2023-07-28T00:38:29;16.70;99.90
13892;DHT22;7016;48.172;8.058;2023-07-28T00:41:15;16.70;99.90
13892;DHT22;7016;48.172;8.058;2023-07-28T00:44:02;16.70;99.90
13892;DHT22;7016;48.172;8.058;2023-07-28T00:46:48;16.60;99.90
13892;DHT22;7016;48.172;8.058;2023-07-28T00:49:34;16.60;99.90
13892;DHT22;7016;48.172;8.058;2023-07-28T00:52:20;16.60;99.90
13892;DHT22;7016;48.172;8.058;2023-07-28T00:55:07;16.60;99.90
13892;DHT22;7016;48.172;8.058;2023-07-28T00:57:53;16.60;99.90
13892;DHT22;7016;48.172;8.058;2023-07-28T01:00:39;16.60;99.90
13892;DHT22;7016;48.172;8.058;2023-07-28T01:03:25;16.60;99.90
13892;DHT22;7016;48.172;8.058;2023-07-28T01:06:26;16.70;99.90
13892;DHT22;7016;48.172;8.058;2023-07-28T01:09:19;16.70;99.90
13892;DHT22;7016;48.172;8.058;2023-07-28T01:12:08;16.60;99.90
13892;DHT22;7016;48.172;8.058;2023-07-28T01:14:57;16.60;99.90
13892;DHT22;7016;48.172;8.058;2023-07-28T01:17:43;16.60;99.90
13892;DHT22;7016;48.172;8.058;2023-07-28T01:20:31;16.70;99.90
13892;DHT22;7016;48.172;8.058;2023-07-28T01:23:20;16.70;99.90
13892;DHT22;7016;48.172;8.058;2023-07-28T01:26:10;16.70;99.90
13892;DHT22;7016;48.172;8.058;2023-07-28T01:28:56;16.70;99.90
13892;DHT22;7016;48.172;8.058;2023-07-28T01:31:43;16.80;99.90
13892;DHT22;7016;48.172;8.058;2023-07-28T01:34:31;16.70;99.90
13892;DHT22;7016;48.172;8.058;2023-07-28T01:37:17;16.80;99.90
13892;DHT22;7016;48.172;8.058;2023-07-28T01:40:04;16.80;99.90
13892;DHT22;7016;48.172;8.058;2023-07-28T01:42:50;16.80;99.90
13892;DHT22;7016;48.172;8.058;2023-07-28T01:45:36;16.90;99.90
13892;DHT22;7016;48.172;8.058;2023-07-28T01:48:22;16.90;99.90
13892;DHT22;7016;48.172;8.058;2023-07-28T01:51:09;16.90;99.90
13892;DHT22;7016;48.172;8.058;2023-07-28T01:53:55;16.90;99.90
13892;DHT22;7016;48.172;8.058;2023-07-28T01:56:41;16.90;99.90
13892;DHT22;7016;48.172;8.058;2023-07-28T01:59:27;16.90;99.90
13892;DHT22;7016;48.172;8.058;2023-07-28T02:02:13;16.90;99.90
13892;DHT22;7016;48.172;8.058;2023-07-28T02:04:59;16.90;99.90
13892;DHT22;7016;48.172;8.058;2023-07-28T02:07:46;16.90;99.90
13892;DHT22;7016;48.172;8.058;2023-07-28T02:10:32;16.90;99.90
13892;DHT22;7016;48.172;8.058;2023-07-28T02:13:19;16.90;99.90
13892;DHT22;7016;48.172;8.058;2023-07-28T02:16:05;16.90;99.90
13892;DHT22;7016;48.172;8.058;2023-07-28T02:18:51;16.90;99.90
13892;DHT22;7016;48.172;8.058;2023-07-28T02:21:37;16.90;99.90
13892;DHT22;7016;48.172;8.058;2023-07-28T02:24:23;16.90;99.90
13892;DHT22;7016;48.172;8.058;2023-07-28T02:27:09;16.90;99.90
13892;DHT22;7016;48.172;8.058;2023-07-28T02:29:55;16.90;99.90
13892;DHT22;7016;48.172;8.058;2023-07-28T02:32:42;16.90;99.90
13892;DHT22;7016;48.172;8.058;2023-07-28T02:35:28;16.90;99.90
13892;DHT22;7016;48.172;8.058;2023-07-28T02:38:14;16.90;99.90
13892;DHT22;7016;48.172;8.058;2023-07-28T02:41:01;16.90;99.90
13892;DHT22;7016;48.172;8.058;2023-07-28T02:43:49;16.90;99.90
13892;DHT22;7016;48.172;8.058;2023-07-28T02:46:35;16.90;99.90
13892;DHT22;7016;48.172;8.058;2023-07-28T02:49:22;16.90;99.90
13892;DHT22;7016;48.172;8.058;2023-07-28T02:52:09;17.00;99.90
13892;DHT22;7016;48.172;8.058;2023-07-28T02:54:55;17.00;99.90
13892;DHT22;7016;48.172;8.058;2023-07-28T02:57:42;16.90;99.90
13892;DHT22;7016;48.172;8.058;2023-07-28T03:00:28;16.90;99.90
13892;DHT22;7016;48.172;8.058;2023-07-28T03:03:14;16.90;99.90
13892;DHT22;7016;48.172;8.058;2023-07-28T03:06:01;17.00;99.90
13892;DHT22;7016;48.172;8.058;2023-07-28T03:08:48;16.90;99.90
13892;DHT22;7016;48.172;8.058;2023-07-28T03:11:34;17.00;99.90
13892;DHT22;7016;48.172;8.058;2023-07-28T03:14:21;17.00;99.90
13892;DHT22;7016;48.172;8.058;2023-07-28T03:17:07;17.10;99.90
13892;DHT22;7016;48.172;8.058;2023-07-28T03:19:53;17.00;99.90
13892;DHT22;7016;48.172;8.058;2023-07-28T03:22:39;17.00;99.90
13892;DHT22;7016;48.172;8.058;2023-07-28T03:25:26;17.00;99.90
13892;DHT22;7016;48.172;8.058;2023-07-28T03:28:12;17.00;99.90
13892;DHT22;7016;48.172;8.058;2023-07-28T03:30:59;16.90;99.90
13892;DHT22;7016;48.172;8.058;2023-07-28T03:33:45;16.90;99.90
13892;DHT22;7016;48.172;8.058;2023-07-28T03:36:31;17.00;99.90
13892;DHT22;7016;48.172;8.058;2023-07-28T03:39:18;16.90;99.90
13892;DHT22;7016;48.172;8.058;2023-07-28T03:42:04;16.90;99.90
13892;DHT22;7016;48.172;8.058;2023-07-28T03:44:51;16.90;99.90
13892;DHT22;7016;48.172;8.058;2023-07-28T03:47:37;16.90;99.90
13892;DHT22;7016;48.172;8.058;2023-07-28T03:50:25;16.90;99.90
13892;DHT22;7016;48.172;8.058;2023-07-28T03:53:12;16.90;99.90
13892;DHT22;7016;48.172;8.058;2023-07-28T03:55:58;16.90;99.90
13892;DHT22;7016;48.172;8.058;2023-07-28T03:58:44;16.90;99.90
13892;DHT22;7016;48.172;8.058;2023-07-28T04:01:31;16.90;99.90
13892;DHT22;7016;48.172;8.058;2023-07-28T04:04:17;16.90;99.90
13892;DHT22;7016;48.172;8.058;2023-07-28T04:07:04;16.90;99.90
13892;DHT22;7016;48.172;8.058;2023-07-28T04:09:50;16.90;99.90
13892;DHT22;7016;48.172;8.058;2023-07-28T04:12:36;17.00;99.90
13892;DHT22;7016;48.172;8.058;2023-07-28T04:15:23;17.00;99.90
13892;DHT22;7016;48.172;8.058;2023-07-28T04:18:09;16.90;99.90
13892;DHT22;7016;48.172;8.058;2023-07-28T04:20:55;16.90;99.90
13892;DHT22;7016;48.172;8.058;2023-07-28T04:23:41;16.90;99.90
13892;DHT22;7016;48.172;8.058;2023-07-28T04:26:29;16.90;99.90
13892;DHT22;7016;48.172;8.058;2023-07-28T04:29:15;16.90;99.90
13892;DHT22;7016;48.172;8.058;2023-07-28T04:32:01;16.90;99.90
13892;DHT22;7016;48.172;8.058;2023-07-28T04:34:47;16.90;99.90
13892;DHT22;7016;48.172;8.058;2023-07-28T04:37:33;16.90;99.90
13892;DHT22;7016;48.172;8.058;2023-07-28T04:40:20;16.90;99.90
13892;DHT22;7016;48.172;8.058;2023-07-28T04:43:06;16.90;99.90
13892;DHT22;7016;48.172;8.058;2023-07-28T04:45:52;16.90;99.90
13892;DHT22;7016;48.172;8.058;2023-07-28T04:48:38;17.00;99.90
13892;DHT22;7016;48.172;8.058;2023-07-28T04:51:24;17.00;99.90
13892;DHT22;7016;48.172;8.058;2023-07-28T04:54:11;17.00;99.90
13892;DHT22;7016;48.172;8.058;2023-07-28T04:56:59;17.10;99.90
13892;DHT22;7016;48.172;8.058;2023-07-28T04:59:45;17.10;99.90
13892;DHT22;7016;48.172;8.058;2023-07-28T05:02:31;17.10;99.90
13892;DHT22;7016;48.172;8.058;2023-07-28T05:05:17;17.10;99.90
13892;DHT22;7016;48.172;8.058;2023-07-28T05:08:04;17.10;99.90
13892;DHT22;7016;48.172;8.058;2023-07-28T05:10:51;17.20;99.90
13892;DHT22;7016;48.172;8.058;2023-07-28T05:13:37;17.20;99.90
13892;DHT22;7016;48.172;8.058;2023-07-28T05:16:24;17.10;99.90
13892;DHT22;7016;48.172;8.058;2023-07-28T05:19:11;17.10;99.90
13892;DHT22;7016;48.172;8.058;2023-07-28T05:21:57;17.20;99.90
13892;DHT22;7016;48.172;8.058;2023-07-28T05:24:44;17.20;99.90
13892;DHT22;7016;48.172;8.058;2023-07-28T05:27:31;17.20;99.90
13892;DHT22;7016;48.172;8.058;2023-07-28T05:30:17;17.30;99.90
13892;DHT22;7016;48.172;8.058;2023-07-28T05:33:03;17.20;99.90
13892;DHT22;7016;48.172;8.058;2023-07-28T05:36:04;17.30;99.90
13892;DHT22;7016;48.172;8.058;2023-07-28T05:38:51;17.40;99.90
13892;DHT22;7016;48.172;8.058;2023-07-28T05:41:39;17.40;99.90
13892;DHT22;7016;48.172;8.058;2023-07-28T05:44:25;17.40;99.90
13892;DHT22;7016;48.172;8.058;2023-07-28T05:47:11;17.40;99.90
13892;DHT22;7016;48.172;8.058;2023-07-28T05:49:57;17.40;99.90
13892;DHT22;7016;48.172;8.058;2023-07-28T05:52:44;17.50;99.90
13892;DHT22;7016;48.172;8.058;2023-07-28T05:55:30;17.60;99.90
13892;DHT22;7016;48.172;8.058;2023-07-28T05:58:16;17.60;99.90
13892;DHT22;7016;48.172;8.058;2023-07-28T06:01:02;17.70;99.90
13892;DHT22;7016;48.172;8.058;2023-07-28T06:03:49;17.70;99.90
13892;DHT22;7016;48.172;8.058;2023-07-28T06:06:35;17.80;99.90
13892;DHT22;7016;48.172;8.058;2023-07-28T06:09:22;17.80;99.90
13892;DHT22;7016;48.172;8.058;2023-07-28T06:12:08;17.90;99.90
13892;DHT22;7016;48.172;8.058;2023-07-28T06:14:54;17.90;99.90
13892;DHT22;7016;48.172;8.058;2023-07-28T06:17:40;17.90;99.90
13892;DHT22;7016;48.172;8.058;2023-07-28T06:20:26;17.80;99.90
13892;DHT22;7016;48.172;8.058;2023-07-28T06:23:13;17.80;99.90
13892;DHT22;7016;48.172;8.058;2023-07-28T06:25:59;17.80;99.90
13892;DHT22;7016;48.172;8.058;2023-07-28T06:28:45;17.90;99.90
13892;DHT22;7016;48.172;8.058;2023-07-28T06:31:31;17.90;99.90
13892;DHT22;7016;48.172;8.058;2023-07-28T06:34:18;18.00;99.90
13892;DHT22;7016;48.172;8.058;2023-07-28T06:37:04;18.00;99.90
13892;DHT22;7016;48.172;8.058;2023-07-28T06:39:50;18.10;99.90
13892;DHT22;7016;48.172;8.058;2023-07-28T06:42:37;18.10;99.90
13892;DHT22;7016;48.172;8.058;2023-07-28T06:45:23;18.10;99.90
13892;DHT22;7016;48.172;8.058;2023-07-28T06:48:09;18.20;99.90
13892;DHT22;7016;48.172;8.058;2023-07-28T06:50:55;18.30;99.90
13892;DHT22;7016;48.172;8.058;2023-07-28T06:53:41;18.30;99.90
13892;DHT22;7016;48.172;8.058;2023-07-28T06:56:27;18.40;99.90
13892;DHT22;7016;48.172;8.058;2023-07-28T06:59:14;18.40;99.90
13892;DHT22;7016;48.172;8.058;2023-07-28T07:02:00;18.40;99.90
13892;DHT22;7016;48.172;8.058;2023-07-28T07:04:46;18.40;99.90
13892;DHT22;7016;48.172;8.058;2023-07-28T07:07:33;18.50;99.90
13892;DHT22;7016;48.172;8.058;2023-07-28T07:10:19;18.70;99.90
13892;DHT22;7016;48.172;8.058;2023-07-28T07:13:06;18.60;99.90
13892;DHT22;7016;48.172;8.058;2023-07-28T07:15:52;18.70;99.90
13892;DHT22;7016;48.172;8.058;2023-07-28T07:18:38;18.90;99.90
13892;DHT22;7016;48.172;8.058;2023-07-28T07:21:26;19.00;99.90
13892;DHT22;7016;48.172;8.058;2023-07-28T07:24:13;19.00;99.90
13892;DHT22;7016;48.172;8.058;2023-07-28T07:27:00;19.10;99.90
13892;DHT22;7016;48.172;8.058;2023-07-28T07:29:46;19.10;99.90
13892;DHT22;7016;48.172;8.058;2023-07-28T07:32:33;19.20;99.90
13892;DHT22;7016;48.172;8.058;2023-07-28T07:35:20;19.30;99.90
13892;DHT22;7016;48.172;8.058;2023-07-28T07:38:06;19.30;99.90
13892;DHT22;7016;48.172;8.058;2023-07-28T07:40:55;19.50;99.90
13892;DHT22;7016;48.172;8.058;2023-07-28T07:43:41;19.60;99.90
13892;DHT22;7016;48.172;8.058;2023-07-28T07:46:27;19.70;99.90
13892;DHT22;7016;48.172;8.058;2023-07-28T07:49:13;19.70;99.90
13892;DHT22;7016;48.172;8.058;2023-07-28T07:52:00;19.80;99.90
13892;DHT22;7016;48.172;8.058;2023-07-28T07:54:46;19.90;99.90
13892;DHT22;7016;48.172;8.058;2023-07-28T07:57:32;19.90;99.90
13892;DHT22;7016;48.172;8.058;2023-07-28T08:00:18;20.20;99.90
13892;DHT22;7016;48.172;8.058;2023-07-28T08:03:05;20.20;99.90
13892;DHT22;7016;48.172;8.058;2023-07-28T08:05:51;20.40;99.90
13892;DHT22;7016;48.172;8.058;2023-07-28T08:08:38;20.40;99.90
13892;DHT22;7016;48.172;8.058;2023-07-28T08:11:24;20.50;99.90
13892;DHT22;7016;48.172;8.058;2023-07-28T08:14:11;20.50;99.90
13892;DHT22;7016;48.172;8.058;2023-07-28T08:16:57;20.60;99.90
13892;DHT22;7016;48.172;8.058;2023-07-28T08:19:43;20.70;99.90
13892;DHT22;7016;48.172;8.058;2023-07-28T08:22:30;20.90;99.90
13892;DHT22;7016;48.172;8.058;2023-07-28T08:25:16;21.10;99.90
13892;DHT22;7016;48.172;8.058;2023-07-28T08:28:02;21.30;99.90
13892;DHT22;7016;48.172;8.058;2023-07-28T08:30:55;21.40;99.90
13892;DHT22;7016;48.172;8.058;2023-07-28T08:33:48;21.40;99.90
13892;DHT22;7016;48.172;8.058;2023-07-28T08:36:34;21.40;99.90
13892;DHT22;7016;48.172;8.058;2023-07-28T08:39:20;21.40;99.90
13892;DHT22;7016;48.172;8.058;2023-07-28T08:42:07;21.20;99.90
13892;DHT22;7016;48.172;8.058;2023-07-28T08:44:53;21.10;99.90
13892;DHT22;7016;48.172;8.058;2023-07-28T08:47:39;21.10;99.90
13892;DHT22;7016;48.172;8.058;2023-07-28T08:50:25;21.00;99.90
13892;DHT22;7016;48.172;8.058;2023-07-28T08:53:12;21.00;99.90
13892;DHT22;7016;48.172;8.058;2023-07-28T08:55:58;21.00;99.90
13892;DHT22;7016;48.172;8.058;2023-07-28T08:58:44;21.10;99.90
13892;DHT22;7016;48.172;8.058;2023-07-28T09:01:31;21.20;99.90
13892;DHT22;7016;48.172;8.058;2023-07-28T09:04:17;21.30;99.90
13892;DHT22;7016;48.172;8.058;2023-07-28T09:07:04;21.50;99.90
13892;DHT22;7016;48.172;8.058;2023-07-28T09:09:59;21.50;99.90
13892;DHT22;7016;48.172;8.058;2023-07-28T09:12:48;21.80;99.90
13892;DHT22;7016;48.172;8.058;2023-07-28T09:15:35;22.00;99.90
13892;DHT22;7016;48.172;8.058;2023-07-28T09:18:25;22.20;99.90
13892;DHT22;7016;48.172;8.058;2023-07-28T09:21:18;22.40;99.90
13892;DHT22;7016;48.172;8.058;2023-07-28T09:24:09;22.50;99.90
13892;DHT22;7016;48.172;8.058;2023-07-28T09:26:58;22.60;99.90
13892;DHT22;7016;48.172;8.058;2023-07-28T09:29:48;22.50;99.90
13892;DHT22;7016;48.172;8.058;2023-07-28T09:32:34;21.50;99.90
13892;DHT22;7016;48.172;8.058;2023-07-28T09:35:22;22.40;99.90
13892;DHT22;7016;48.172;8.058;2023-07-28T09:38:09;22.20;99.90
13892;DHT22;7016;48.172;8.058;2023-07-28T09:40:57;22.20;99.90
13892;DHT22;7016;48.172;8.058;2023-07-28T09:43:44;22.20;99.90
13892;DHT22;7016;48.172;8.058;2023-07-28T09:46:33;22.10;99.90
13892;DHT22;7016;48.172;8.058;2023-07-28T09:49:28;22.20;99.90
13892;DHT22;7016;48.172;8.058;2023-07-28T09:52:16;22.10;99.90
13892;DHT22;7016;48.172;8.058;2023-07-28T09:55:07;22.20;99.90
13892;DHT22;7016;48.172;8.058;2023-07-28T09:57:56;22.20;99.90
13892;DHT22;7016;48.172;8.058;2023-07-28T10:00:43;22.20;99.90
13892;DHT22;7016;48.172;8.058;2023-07-28T10:03:30;22.20;99.90
13892;DHT22;7016;48.172;8.058;2023-07-28T10:06:18;22.20;99.90
13892;DHT22;7016;48.172;8.058;2023-07-28T10:09:05;22.30;99.90
13892;DHT22;7016;48.172;8.058;2023-07-28T10:11:52;22.60;99.90
13892;DHT22;7016;48.172;8.058;2023-07-28T10:14:39;22.60;99.90
13892;DHT22;7016;48.172;8.058;2023-07-28T10:17:32;22.80;99.90
13892;DHT22;7016;48.172;8.058;2023-07-28T10:20:38;22.70;99.90
13892;DHT22;7016;48.172;8.058;2023-07-28T10:23:25;22.70;99.90
13892;DHT22;7016;48.172;8.058;2023-07-28T10:26:11;22.60;99.90
13892;DHT22;7016;48.172;8.058;2023-07-28T10:29:11;22.60;99.90
13892;DHT22;7016;48.172;8.058;2023-07-28T10:31:57;22.60;99.90
13892;DHT22;7016;48.172;8.058;2023-07-28T10:34:59;22.70;99.90
13892;DHT22;7016;48.172;8.058;2023-07-28T10:37:46;22.80;99.90
13892;DHT22;7016;48.172;8.058;2023-07-28T10:40:34;23.10;99.90
13892;DHT22;7016;48.172;8.058;2023-07-28T10:43:24;23.00;99.90
13892;DHT22;7016;48.172;8.058;2023-07-28T10:46:16;23.00;99.90
13892;DHT22;7016;48.172;8.058;2023-07-28T10:49:05;23.00;99.90
13892;DHT22;7016;48.172;8.058;2023-07-28T10:51:51;23.00;99.90
13892;DHT22;7016;48.172;8.058;2023-07-28T10:54:38;23.00;99.90
13892;DHT22;7016;48.172;8.058;2023-07-28T10:57:24;22.90;99.90
13892;DHT22;7016;48.172;8.058;2023-07-28T11:00:14;22.90;99.90
13892;DHT22;7016;48.172;8.058;2023-07-28T11:03:01;22.80;99.90
13892;DHT22;7016;48.172;8.058;2023-07-28T11:05:48;22.80;99.90
13892;DHT22;7016;48.172;8.058;2023-07-28T11:08:35;22.80;99.90
13892;DHT22;7016;48.172;8.058;2023-07-28T11:11:21;22.80;99.90
13892;DHT22;7016;48.172;8.058;2023-07-28T11:14:08;22.80;99.90
13892;DHT22;7016;48.172;8.058;2023-07-28T11:16:55;22.90;99.90
13892;DHT22;7016;48.172;8.058;2023-07-28T11:19:41;22.80;99.90
13892;DHT22;7016;48.172;8.058;2023-07-28T11:22:27;22.80;99.90
13892;DHT22;7016;48.172;8.058;2023-07-28T11:25:14;22.70;99.90
13892;DHT22;7016;48.172;8.058;2023-07-28T11:28:02;22.60;99.90
13892;DHT22;7016;48.172;8.058;2023-07-28T11:30:51;22.60;99.90
13892;DHT22;7016;48.172;8.058;2023-07-28T11:33:39;22.70;99.90
13892;DHT22;7016;48.172;8.058;2023-07-28T11:36:27;22.60;99.90
13892;DHT22;7016;48.172;8.058;2023-07-28T11:39:13;22.60;99.90
13892;DHT22;7016;48.172;8.058;2023-07-28T11:42:01;22.60;99.90
13892;DHT22;7016;48.172;8.058;2023-07-28T11:44:47;22.60;99.90
13892;DHT22;7016;48.172;8.058;2023-07-28T11:47:34;22.60;99.90
13892;DHT22;7016;48.172;8.058;2023-07-28T11:53:10;22.60;99.90
13892;DHT22;7016;48.172;8.058;2023-07-28T11:55:57;22.70;99.90
13892;DHT22;7016;48.172;8.058;2023-07-28T11:58:43;22.70;99.90
13892;DHT22;7016;48.172;8.058;2023-07-28T12:01:29;22.70;99.90
13892;DHT22;7016;48.172;8.058;2023-07-28T12:04:28;22.60;99.90
13892;DHT22;7016;48.172;8.058;2023-07-28T12:07:18;22.60;99.90
13892;DHT22;7016;48.172;8.058;2023-07-28T12:10:05;22.50;99.90
13892;DHT22;7016;48.172;8.058;2023-07-28T12:12:55;22.30;99.90
13892;DHT22;7016;48.172;8.058;2023-07-28T12:15:41;22.20;99.90
13892;DHT22;7016;48.172;8.058;2023-07-28T12:18:30;22.00;99.90
13892;DHT22;7016;48.172;8.058;2023-07-28T12:21:16;21.90;99.90
13892;DHT22;7016;48.172;8.058;2023-07-28T12:24:03;21.90;99.90
13892;DHT22;7016;48.172;8.058;2023-07-28T12:26:50;22.00;99.90
13892;DHT22;7016;48.172;8.058;2023-07-28T12:29:37;22.00;99.90
13892;DHT22;7016;48.172;8.058;2023-07-28T12:32:23;22.00;99.90
13892;DHT22;7016;48.172;8.058;2023-07-28T12:35:09;22.10;99.90
13892;DHT22;7016;48.172;8.058;2023-07-28T12:37:55;22.10;99.90
13892;DHT22;7016;48.172;8.058;2023-07-28T12:40:42;22.00;99.90
13892;DHT22;7016;48.172;8.058;2023-07-28T12:43:28;22.00;99.90
13892;DHT22;7016;48.172;8.058;2023-07-28T12:46:15;22.00;99.90
13892;DHT22;7016;48.172;8.058;2023-07-28T12:49:01;21.90;99.90
13892;DHT22;7016;48.172;8.058;2023-07-28T12:51:47;21.80;99.90
13892;DHT22;7016;48.172;8.058;2023-07-28T12:54:33;21.80;99.90
13892;DHT22;7016;48.172;8.058;2023-07-28T12:57:20;21.70;99.90
13892;DHT22;7016;48.172;8.058;2023-07-28T13:00:07;21.70;99.90
13892;DHT22;7016;48.172;8.058;2023-07-28T13:02:58;21.70;99.90
13892;DHT22;7016;48.172;8.058;2023-07-28T13:05:44;23.70;99.90
13892;DHT22;7016;48.172;8.058;2023-07-28T13:08:32;21.60;99.90
13892;DHT22;7016;48.172;8.058;2023-07-28T13:11:19;21.60;99.90
13892;DHT22;7016;48.172;8.058;2023-07-28T13:14:05;21.50;99.90
13892;DHT22;7016;48.172;8.058;2023-07-28T13:16:51;21.50;99.90
13892;DHT22;7016;48.172;8.058;2023-07-28T13:19:38;21.60;99.90
13892;DHT22;7016;48.172;8.058;2023-07-28T13:22:24;21.50;99.90
13892;DHT22;7016;48.172;8.058;2023-07-28T13:25:12;21.50;99.90
13892;DHT22;7016;48.172;8.058;2023-07-28T13:27:58;21.80;99.90
13892;DHT22;7016;48.172;8.058;2023-07-28T13:30:44;21.30;99.90
13892;DHT22;7016;48.172;8.058;2023-07-28T13:33:31;21.30;99.90
13892;DHT22;7016;48.172;8.058;2023-07-28T13:36:17;21.40;99.90
13892;DHT22;7016;48.172;8.058;2023-07-28T13:39:03;21.50;99.90
13892;DHT22;7016;48.172;8.058;2023-07-28T13:41:49;21.70;99.90
13892;DHT22;7016;48.172;8.058;2023-07-28T13:44:36;21.80;99.90
13892;DHT22;7016;48.172;8.058;2023-07-28T13:47:23;21.90;99.90
13892;DHT22;7016;48.172;8.058;2023-07-28T13:50:09;21.90;99.90
13892;DHT22;7016;48.172;8.058;2023-07-28T13:52:56;21.80;99.90
13892;DHT22;7016;48.172;8.058;2023-07-28T13:55:42;21.90;99.90
13892;DHT22;7016;48.172;8.058;2023-07-28T13:58:29;21.80;99.90
13892;DHT22;7016;48.172;8.058;2023-07-28T14:01:15;21.80;99.90
13892;DHT22;7016;48.172;8.058;2023-07-28T14:04:01;21.70;99.90
13892;DHT22;7016;48.172;8.058;2023-07-28T14:06:47;21.70;99.90
13892;DHT22;7016;48.172;8.058;2023-07-28T14:09:33;21.70;99.90
13892;DHT22;7016;48.172;8.058;2023-07-28T14:12:19;21.70;99.90
13892;DHT22;7016;48.172;8.058;2023-07-28T14:15:07;21.60;99.90
13892;DHT22;7016;48.172;8.058;2023-07-28T14:17:54;21.80;99.90
13892;DHT22;7016;48.172;8.058;2023-07-28T14:20:40;21.80;99.90
13892;DHT22;7016;48.172;8.058;2023-07-28T14:23:27;21.80;99.90
13892;DHT22;7016;48.172;8.058;2023-07-28T14:26:14;21.90;99.90
13892;DHT22;7016;48.172;8.058;2023-07-28T14:29:00;22.00;99.90
13892;DHT22;7016;48.172;8.058;2023-07-28T14:31:46;22.10;99.90
13892;DHT22;7016;48.172;8.058;2023-07-28T14:34:32;22.10;99.90
13892;DHT22;7016;48.172;8.058;2023-07-28T14:37:19;22.00;99.90
13892;DHT22;7016;48.172;8.058;2023-07-28T14:40:06;22.00;99.90
13892;DHT22;7016;48.172;8.058;2023-07-28T14:42:53;22.20;99.90
13892;DHT22;7016;48.172;8.058;2023-07-28T14:45:39;22.10;99.90
13892;DHT22;7016;48.172;8.058;2023-07-28T14:48:25;22.20;99.90
13892;DHT22;7016;48.172;8.058;2023-07-28T14:51:11;22.00;99.90
13892;DHT22;7016;48.172;8.058;2023-07-28T14:53:57;22.00;99.90
13892;DHT22;7016;48.172;8.058;2023-07-28T14:56:43;22.00;99.90
13892;DHT22;7016;48.172;8.058;2023-07-28T14:59:30;22.00;99.90
13892;DHT22;7016;48.172;8.058;2023-07-28T15:02:16;21.90;99.90
13892;DHT22;7016;48.172;8.058;2023-07-28T15:05:02;21.90;99.90
13892;DHT22;7016;48.172;8.058;2023-07-28T15:07:48;21.90;99.90
13892;DHT22;7016;48.172;8.058;2023-07-28T15:10:34;21.90;99.90
13892;DHT22;7016;48.172;8.058;2023-07-28T15:13:21;21.90;99.90
13892;DHT22;7016;48.172;8.058;2023-07-28T15:16:07;21.90;99.90
13892;DHT22;7016;48.172;8.058;2023-07-28T15:18:53;21.90;99.90
13892;DHT22;7016;48.172;8.058;2023-07-28T15:21:40;21.80;99.90
13892;DHT22;7016;48.172;8.058;2023-07-28T15:24:26;21.70;99.90
13892;DHT22;7016;48.172;8.058;2023-07-28T15:27:12;21.70;99.90
13892;DHT22;7016;48.172;8.058;2023-07-28T15:29:59;21.60;99.90
13892;DHT22;7016;48.172;8.058;2023-07-28T15:32:45;21.50;99.90
13892;DHT22;7016;48.172;8.058;2023-07-28T15:35:32;21.50;99.90
13892;DHT22;7016;48.172;8.058;2023-07-28T15:38:19;21.40;99.90
13892;DHT22;7016;48.172;8.058;2023-07-28T15:41:05;21.30;99.90
13892;DHT22;7016;48.172;8.058;2023-07-28T15:43:51;21.30;99.90
13892;DHT22;7016;48.172;8.058;2023-07-28T15:46:37;21.30;99.90
13892;DHT22;7016;48.172;8.058;2023-07-28T15:49:24;21.30;99.90
13892;DHT22;7016;48.172;8.058;2023-07-28T15:52:10;21.30;99.90
13892;DHT22;7016;48.172;8.058;2023-07-28T15:54:56;21.30;99.90
13892;DHT22;7016;48.172;8.058;2023-07-28T15:57:42;21.30;99.90
13892;DHT22;7016;48.172;8.058;2023-07-28T16:00:28;21.10;99.90
13892;DHT22;7016;48.172;8.058;2023-07-28T16:03:14;21.10;99.90
13892;DHT22;7016;48.172;8.058;2023-07-28T16:06:00;21.10;99.90
13892;DHT22;7016;48.172;8.058;2023-07-28T16:08:47;20.80;99.90
13892;DHT22;7016;48.172;8.058;2023-07-28T16:11:33;20.50;99.90
13892;DHT22;7016;48.172;8.058;2023-07-28T16:14:19;20.60;99.90
13892;DHT22;7016;48.172;8.058;2023-07-28T16:17:05;20.90;99.90
13892;DHT22;7016;48.172;8.058;2023-07-28T16:19:51;20.90;99.90
13892;DHT22;7016;48.172;8.058;2023-07-28T16:22:38;20.70;99.90
13892;DHT22;7016;48.172;8.058;2023-07-28T16:25:24;20.70;99.90
13892;DHT22;7016;48.172;8.058;2023-07-28T16:28:10;20.50;99.90
13892;DHT22;7016;48.172;8.058;2023-07-28T16:30:56;20.50;99.90
13892;DHT22;7016;48.172;8.058;2023-07-28T16:33:43;20.60;99.90
13892;DHT22;7016;48.172;8.058;2023-07-28T16:36:29;20.50;99.90
13892;DHT22;7016;48.172;8.058;2023-07-28T16:39:15;20.40;99.90
13892;DHT22;7016;48.172;8.058;2023-07-28T16:42:01;20.50;99.90
13892;DHT22;7016;48.172;8.058;2023-07-28T16:44:48;20.50;99.90
13892;DHT22;7016;48.172;8.058;2023-07-28T16:47:34;20.40;99.90
13892;DHT22;7016;48.172;8.058;2023-07-28T16:50:22;20.20;99.90
13892;DHT22;7016;48.172;8.058;2023-07-28T16:53:09;20.20;99.90
13892;DHT22;7016;48.172;8.058;2023-07-28T16:55:55;20.30;99.90
13892;DHT22;7016;48.172;8.058;2023-07-28T16:58:41;20.30;99.90
13892;DHT22;7016;48.172;8.058;2023-07-28T17:01:27;20.40;99.90
13892;DHT22;7016;48.172;8.058;2023-07-28T17:04:14;20.50;99.90
13892;DHT22;7016;48.172;8.058;2023-07-28T17:07:00;20.60;99.90
13892;DHT22;7016;48.172;8.058;2023-07-28T17:09:46;20.60;99.90
13892;DHT22;7016;48.172;8.058;2023-07-28T17:12:33;20.70;99.90
13892;DHT22;7016;48.172;8.058;2023-07-28T17:15:19;20.70;99.90
13892;DHT22;7016;48.172;8.058;2023-07-28T17:18:05;20.70;99.90
13892;DHT22;7016;48.172;8.058;2023-07-28T17:20:51;20.70;99.90
13892;DHT22;7016;48.172;8.058;2023-07-28T17:23:38;20.70;99.90
13892;DHT22;7016;48.172;8.058;2023-07-28T17:26:24;20.70;99.90
13892;DHT22;7016;48.172;8.058;2023-07-28T17:29:10;20.70;99.90
13892;DHT22;7016;48.172;8.058;2023-07-28T17:31:57;20.70;99.90
13892;DHT22;7016;48.172;8.058;2023-07-28T17:34:43;20.80;99.90
13892;DHT22;7016;48.172;8.058;2023-07-28T17:37:29;20.80;99.90
13892;DHT22;7016;48.172;8.058;2023-07-28T17:43:02;20.80;99.90
13892;DHT22;7016;48.172;8.058;2023-07-28T17:45:48;20.80;99.90
13892;DHT22;7016;48.172;8.058;2023-07-28T17:48:34;20.80;99.90
13892;DHT22;7016;48.172;8.058;2023-07-28T17:51:20;20.80;99.90
13892;DHT22;7016;48.172;8.058;2023-07-28T17:54:07;20.80;99.90
13892;DHT22;7016;48.172;8.058;2023-07-28T17:56:53;20.70;99.90